sensor_id;sensor_type;location;lat;lon;timestamp;P1;durP1;ratioP1;P2;durP2;ratioP2
56331;SDS011;42237;53.340;6.812;2022-08-18T00:00:42;32.78;;;10.00;;
56331;SDS011;42237;53.340;6.812;2022-08-18T00:03:08;26.75;;;9.23;;
56331;SDS011;42237;53.340;6.812;2022-08-18T00:05:35;25.92;;;9.45;;
56331;SDS011;42237;53.340;6.812;2022-08-18T00:08:01;34.13;;;10.48;;
56331;SDS011;42237;53.340;6.812;2022-08-18T00:10:28;28.95;;;9.95;;
56331;SDS011;42237;53.340;6.812;2022-08-18T00:12:54;26.38;;;9.77;;
56331;SDS011;42237;53.340;6.812;2022-08-18T00:15:20;28.88;;;9.77;;
56331;SDS011;42237;53.340;6.812;2022-08-18T00:17:46;29.20;;;9.52;;
56331;SDS011;42237;53.340;6.812;2022-08-18T00:20:13;22.95;;;9.48;;
56331;SDS011;42237;53.340;6.812;2022-08-18T00:22:45;28.92;;;9.18;;
56331;SDS011;42237;53.340;6.812;2022-08-18T00:25:13;18.40;;;7.57;;
56331;SDS011;42237;53.340;6.812;2022-08-18T00:27:40;26.90;;;8.80;;
56331;SDS011;42237;53.340;6.812;2022-08-18T00:30:07;22.70;;;9.15;;
56331;SDS011;42237;53.340;6.812;2022-08-18T00:32:38;29.02;;;9.50;;
56331;SDS011;42237;53.340;6.812;2022-08-18T00:37:39;31.95;;;8.68;;
56331;SDS011;42237;53.340;6.812;2022-08-18T00:40:05;25.65;;;8.90;;
56331;SDS011;42237;53.340;6.812;2022-08-18T00:42:36;20.27;;;8.20;;
56331;SDS011;42237;53.340;6.812;2022-08-18T00:45:08;25.73;;;10.13;;
56331;SDS011;42237;53.340;6.812;2022-08-18T00:47:39;20.23;;;8.25;;
56331;SDS011;42237;53.340;6.812;2022-08-18T00:50:04;32.28;;;8.88;;
56331;SDS011;42237;53.340;6.812;2022-08-18T00:52:31;22.65;;;8.50;;
56331;SDS011;42237;53.340;6.812;2022-08-18T00:54:58;23.77;;;10.05;;
56331;SDS011;42237;53.340;6.812;2022-08-18T00:57:25;28.15;;;10.15;;
56331;SDS011;42237;53.340;6.812;2022-08-18T00:59:55;24.38;;;9.43;;
56331;SDS011;42237;53.340;6.812;2022-08-18T01:02:31;26.45;;;9.15;;
56331;SDS011;42237;53.340;6.812;2022-08-18T01:07:54;29.80;;;9.88;;
56331;SDS011;42237;53.340;6.812;2022-08-18T01:10:21;24.73;;;8.65;;
56331;SDS011;42237;53.340;6.812;2022-08-18T01:12:49;23.95;;;9.75;;
56331;SDS011;42237;53.340;6.812;2022-08-18T01:15:20;29.83;;;9.38;;
56331;SDS011;42237;53.340;6.812;2022-08-18T01:17:48;22.23;;;8.75;;
56331;SDS011;42237;53.340;6.812;2022-08-18T01:23:42;34.75;;;8.88;;
56331;SDS011;42237;53.340;6.812;2022-08-18T01:26:09;21.17;;;8.63;;
56331;SDS011;42237;53.340;6.812;2022-08-18T01:28:38;16.63;;;8.18;;
56331;SDS011;42237;53.340;6.812;2022-08-18T01:31:06;25.10;;;8.80;;
56331;SDS011;42237;53.340;6.812;2022-08-18T01:33:35;12.85;;;7.32;;
56331;SDS011;42237;53.340;6.812;2022-08-18T01:36:11;22.80;;;7.63;;
56331;SDS011;42237;53.340;6.812;2022-08-18T01:38:40;16.67;;;8.07;;
56331;SDS011;42237;53.340;6.812;2022-08-18T01:41:07;20.30;;;7.80;;
56331;SDS011;42237;53.340;6.812;2022-08-18T01:43:34;20.88;;;8.05;;
56331;SDS011;42237;53.340;6.812;2022-08-18T01:46:01;19.98;;;7.40;;
56331;SDS011;42237;53.340;6.812;2022-08-18T01:48:32;16.52;;;6.78;;
56331;SDS011;42237;53.340;6.812;2022-08-18T01:51:02;19.08;;;7.40;;
56331;SDS011;42237;53.340;6.812;2022-08-18T01:53:29;19.60;;;7.40;;
56331;SDS011;42237;53.340;6.812;2022-08-18T01:55:55;24.33;;;7.07;;
56331;SDS011;42237;53.340;6.812;2022-08-18T01:58:21;19.90;;;7.65;;
56331;SDS011;42237;53.340;6.812;2022-08-18T02:00:52;24.30;;;8.60;;
56331;SDS011;42237;53.340;6.812;2022-08-18T02:03:22;21.85;;;7.13;;
56331;SDS011;42237;53.340;6.812;2022-08-18T02:05:54;20.52;;;7.55;;
56331;SDS011;42237;53.340;6.812;2022-08-18T02:08:24;22.27;;;7.53;;
56331;SDS011;42237;53.340;6.812;2022-08-18T02:10:49;26.65;;;9.00;;
56331;SDS011;42237;53.340;6.812;2022-08-18T02:13:15;30.23;;;9.15;;
56331;SDS011;42237;53.340;6.812;2022-08-18T02:15:41;20.27;;;8.90;;
56331;SDS011;42237;53.340;6.812;2022-08-18T02:18:12;20.02;;;8.95;;
56331;SDS011;42237;53.340;6.812;2022-08-18T02:20:38;29.67;;;9.15;;
56331;SDS011;42237;53.340;6.812;2022-08-18T02:23:04;32.72;;;9.30;;
56331;SDS011;42237;53.340;6.812;2022-08-18T02:25:30;30.58;;;8.88;;
56331;SDS011;42237;53.340;6.812;2022-08-18T02:27:56;24.70;;;9.13;;
56331;SDS011;42237;53.340;6.812;2022-08-18T02:30:22;23.08;;;9.05;;
56331;SDS011;42237;53.340;6.812;2022-08-18T02:32:47;35.65;;;9.40;;
56331;SDS011;42237;53.340;6.812;2022-08-18T02:35:13;31.25;;;9.55;;
56331;SDS011;42237;53.340;6.812;2022-08-18T02:37:40;28.65;;;9.45;;
56331;SDS011;42237;53.340;6.812;2022-08-18T02:40:07;31.60;;;9.23;;
56331;SDS011;42237;53.340;6.812;2022-08-18T02:42:34;21.58;;;8.50;;
56331;SDS011;42237;53.340;6.812;2022-08-18T02:44:59;19.80;;;8.32;;
56331;SDS011;42237;53.340;6.812;2022-08-18T02:47:25;33.95;;;9.45;;
56331;SDS011;42237;53.340;6.812;2022-08-18T02:49:51;20.25;;;8.73;;
56331;SDS011;42237;53.340;6.812;2022-08-18T02:52:16;18.30;;;9.55;;
56331;SDS011;42237;53.340;6.812;2022-08-18T02:54:42;25.25;;;10.05;;
56331;SDS011;42237;53.340;6.812;2022-08-18T02:57:08;22.67;;;10.80;;
56331;SDS011;42237;53.340;6.812;2022-08-18T02:59:36;26.75;;;9.55;;
56331;SDS011;42237;53.340;6.812;2022-08-18T03:02:03;19.75;;;10.05;;
56331;SDS011;42237;53.340;6.812;2022-08-18T03:04:31;23.27;;;10.27;;
56331;SDS011;42237;53.340;6.812;2022-08-18T03:07:01;23.50;;;10.30;;
56331;SDS011;42237;53.340;6.812;2022-08-18T03:09:29;24.77;;;9.90;;
56331;SDS011;42237;53.340;6.812;2022-08-18T03:11:56;21.38;;;8.85;;
56331;SDS011;42237;53.340;6.812;2022-08-18T03:14:23;18.88;;;8.38;;
56331;SDS011;42237;53.340;6.812;2022-08-18T03:16:49;22.00;;;8.48;;
56331;SDS011;42237;53.340;6.812;2022-08-18T03:19:15;22.58;;;8.57;;
56331;SDS011;42237;53.340;6.812;2022-08-18T03:21:41;19.77;;;7.72;;
56331;SDS011;42237;53.340;6.812;2022-08-18T03:24:09;18.77;;;7.60;;
56331;SDS011;42237;53.340;6.812;2022-08-18T03:26:39;20.23;;;8.10;;
56331;SDS011;42237;53.340;6.812;2022-08-18T03:29:06;19.90;;;6.82;;
56331;SDS011;42237;53.340;6.812;2022-08-18T03:31:33;19.02;;;8.20;;
56331;SDS011;42237;53.340;6.812;2022-08-18T03:34:03;26.60;;;8.35;;
56331;SDS011;42237;53.340;6.812;2022-08-18T03:36:31;23.58;;;8.52;;
56331;SDS011;42237;53.340;6.812;2022-08-18T03:39:00;20.40;;;8.77;;
56331;SDS011;42237;53.340;6.812;2022-08-18T03:41:28;24.92;;;9.40;;
56331;SDS011;42237;53.340;6.812;2022-08-18T03:43:55;20.85;;;9.70;;
56331;SDS011;42237;53.340;6.812;2022-08-18T03:46:21;23.17;;;9.15;;
56331;SDS011;42237;53.340;6.812;2022-08-18T03:48:47;23.45;;;8.70;;
56331;SDS011;42237;53.340;6.812;2022-08-18T03:51:21;21.25;;;8.57;;
56331;SDS011;42237;53.340;6.812;2022-08-18T03:53:51;18.48;;;9.23;;
56331;SDS011;42237;53.340;6.812;2022-08-18T03:56:20;20.60;;;9.57;;
56331;SDS011;42237;53.340;6.812;2022-08-18T03:58:49;18.83;;;8.75;;
56331;SDS011;42237;53.340;6.812;2022-08-18T04:01:17;25.02;;;10.18;;
56331;SDS011;42237;53.340;6.812;2022-08-18T04:03:46;17.85;;;9.38;;
56331;SDS011;42237;53.340;6.812;2022-08-18T04:06:15;19.52;;;10.00;;
56331;SDS011;42237;53.340;6.812;2022-08-18T04:08:42;19.90;;;9.57;;
56331;SDS011;42237;53.340;6.812;2022-08-18T04:11:09;17.75;;;9.10;;
56331;SDS011;42237;53.340;6.812;2022-08-18T04:13:38;15.80;;;8.68;;
56331;SDS011;42237;53.340;6.812;2022-08-18T04:16:04;20.52;;;9.23;;
56331;SDS011;42237;53.340;6.812;2022-08-18T04:18:30;21.95;;;8.38;;
56331;SDS011;42237;53.340;6.812;2022-08-18T04:21:00;23.50;;;9.20;;
56331;SDS011;42237;53.340;6.812;2022-08-18T04:23:32;15.60;;;8.20;;
56331;SDS011;42237;53.340;6.812;2022-08-18T04:25:59;13.82;;;7.22;;
56331;SDS011;42237;53.340;6.812;2022-08-18T04:28:26;18.17;;;8.43;;
56331;SDS011;42237;53.340;6.812;2022-08-18T04:30:52;19.17;;;8.32;;
56331;SDS011;42237;53.340;6.812;2022-08-18T04:33:23;17.08;;;7.47;;
56331;SDS011;42237;53.340;6.812;2022-08-18T04:35:50;16.10;;;7.43;;
56331;SDS011;42237;53.340;6.812;2022-08-18T04:38:16;29.02;;;7.60;;
56331;SDS011;42237;53.340;6.812;2022-08-18T04:40:42;16.73;;;7.45;;
56331;SDS011;42237;53.340;6.812;2022-08-18T04:43:08;17.60;;;7.35;;
56331;SDS011;42237;53.340;6.812;2022-08-18T04:45:39;16.20;;;7.40;;
56331;SDS011;42237;53.340;6.812;2022-08-18T04:48:11;20.63;;;6.78;;
56331;SDS011;42237;53.340;6.812;2022-08-18T04:50:40;17.55;;;7.25;;
56331;SDS011;42237;53.340;6.812;2022-08-18T04:53:06;20.27;;;7.65;;
56331;SDS011;42237;53.340;6.812;2022-08-18T04:55:51;21.88;;;7.97;;
56331;SDS011;42237;53.340;6.812;2022-08-18T04:58:19;17.95;;;7.10;;
56331;SDS011;42237;53.340;6.812;2022-08-18T05:00:54;17.48;;;7.65;;
56331;SDS011;42237;53.340;6.812;2022-08-18T05:03:24;13.23;;;7.10;;
56331;SDS011;42237;53.340;6.812;2022-08-18T05:06:02;20.73;;;7.55;;
56331;SDS011;42237;53.340;6.812;2022-08-18T05:08:29;18.25;;;7.45;;
56331;SDS011;42237;53.340;6.812;2022-08-18T05:10:55;19.10;;;7.95;;
56331;SDS011;42237;53.340;6.812;2022-08-18T05:13:22;20.27;;;7.50;;
56331;SDS011;42237;53.340;6.812;2022-08-18T05:15:56;21.27;;;8.20;;
56331;SDS011;42237;53.340;6.812;2022-08-18T05:18:27;16.23;;;7.80;;
56331;SDS011;42237;53.340;6.812;2022-08-18T05:20:56;18.17;;;8.85;;
56331;SDS011;42237;53.340;6.812;2022-08-18T05:23:24;17.70;;;8.80;;
56331;SDS011;42237;53.340;6.812;2022-08-18T05:25:55;27.15;;;8.10;;
56331;SDS011;42237;53.340;6.812;2022-08-18T05:28:23;16.90;;;8.38;;
56331;SDS011;42237;53.340;6.812;2022-08-18T05:30:49;19.25;;;8.43;;
56331;SDS011;42237;53.340;6.812;2022-08-18T05:33:14;21.63;;;8.60;;
56331;SDS011;42237;53.340;6.812;2022-08-18T05:35:44;20.45;;;9.05;;
56331;SDS011;42237;53.340;6.812;2022-08-18T05:41:05;22.02;;;9.18;;
56331;SDS011;42237;53.340;6.812;2022-08-18T05:43:45;21.60;;;9.38;;
56331;SDS011;42237;53.340;6.812;2022-08-18T05:46:13;20.67;;;9.60;;
56331;SDS011;42237;53.340;6.812;2022-08-18T05:48:39;21.15;;;9.23;;
56331;SDS011;42237;53.340;6.812;2022-08-18T05:51:10;20.70;;;9.13;;
56331;SDS011;42237;53.340;6.812;2022-08-18T05:53:55;21.00;;;8.73;;
56331;SDS011;42237;53.340;6.812;2022-08-18T05:56:40;14.55;;;8.15;;
56331;SDS011;42237;53.340;6.812;2022-08-18T05:59:13;18.17;;;9.02;;
56331;SDS011;42237;53.340;6.812;2022-08-18T06:07:13;19.00;;;8.40;;
56331;SDS011;42237;53.340;6.812;2022-08-18T06:09:52;18.02;;;8.50;;
56331;SDS011;42237;53.340;6.812;2022-08-18T06:12:26;15.57;;;8.15;;
56331;SDS011;42237;53.340;6.812;2022-08-18T06:28:34;18.52;;;6.80;;
56331;SDS011;42237;53.340;6.812;2022-08-18T06:31:19;20.45;;;7.47;;
56331;SDS011;42237;53.340;6.812;2022-08-18T06:37:00;18.67;;;6.88;;
56331;SDS011;42237;53.340;6.812;2022-08-18T06:39:35;15.10;;;6.38;;
56331;SDS011;42237;53.340;6.812;2022-08-18T06:42:11;16.75;;;7.13;;
56331;SDS011;42237;53.340;6.812;2022-08-18T06:44:42;19.92;;;7.63;;
56331;SDS011;42237;53.340;6.812;2022-08-18T06:52:36;18.95;;;7.22;;
56331;SDS011;42237;53.340;6.812;2022-08-18T06:55:16;23.23;;;8.50;;
56331;SDS011;42237;53.340;6.812;2022-08-18T06:57:54;18.58;;;8.40;;
56331;SDS011;42237;53.340;6.812;2022-08-18T07:00:26;25.15;;;10.25;;
56331;SDS011;42237;53.340;6.812;2022-08-18T07:03:01;16.33;;;8.25;;
56331;SDS011;42237;53.340;6.812;2022-08-18T07:08:05;16.92;;;5.88;;
56331;SDS011;42237;53.340;6.812;2022-08-18T07:10:48;14.07;;;5.40;;
56331;SDS011;42237;53.340;6.812;2022-08-18T07:13:17;17.70;;;6.00;;
56331;SDS011;42237;53.340;6.812;2022-08-18T07:15:49;12.90;;;5.97;;
56331;SDS011;42237;53.340;6.812;2022-08-18T07:18:20;14.10;;;5.18;;
56331;SDS011;42237;53.340;6.812;2022-08-18T07:20:53;12.95;;;4.78;;
56331;SDS011;42237;53.340;6.812;2022-08-18T07:23:28;14.00;;;5.18;;
56331;SDS011;42237;53.340;6.812;2022-08-18T07:26:10;13.60;;;5.65;;
56331;SDS011;42237;53.340;6.812;2022-08-18T07:28:45;18.05;;;5.47;;
56331;SDS011;42237;53.340;6.812;2022-08-18T07:34:09;11.40;;;4.40;;
56331;SDS011;42237;53.340;6.812;2022-08-18T07:36:49;10.88;;;4.38;;
56331;SDS011;42237;53.340;6.812;2022-08-18T07:39:27;11.40;;;4.25;;
56331;SDS011;42237;53.340;6.812;2022-08-18T07:42:15;9.40;;;4.25;;
56331;SDS011;42237;53.340;6.812;2022-08-18T07:50:12;20.65;;;4.55;;
56331;SDS011;42237;53.340;6.812;2022-08-18T07:53:28;9.48;;;3.58;;
56331;SDS011;42237;53.340;6.812;2022-08-18T07:55:34;11.73;;;3.95;;
56331;SDS011;42237;53.340;6.812;2022-08-18T08:00:40;8.63;;;4.13;;
56331;SDS011;42237;53.340;6.812;2022-08-18T08:06:16;15.35;;;4.25;;
56331;SDS011;42237;53.340;6.812;2022-08-18T08:08:55;11.23;;;4.03;;
56331;SDS011;42237;53.340;6.812;2022-08-18T08:19:47;13.50;;;3.30;;
56331;SDS011;42237;53.340;6.812;2022-08-18T08:30:45;11.73;;;3.40;;
56331;SDS011;42237;53.340;6.812;2022-08-18T08:33:45;9.13;;;3.53;;
56331;SDS011;42237;53.340;6.812;2022-08-18T08:36:17;8.02;;;3.42;;
56331;SDS011;42237;53.340;6.812;2022-08-18T08:38:49;10.45;;;4.13;;
56331;SDS011;42237;53.340;6.812;2022-08-18T08:44:21;8.07;;;3.08;;
56331;SDS011;42237;53.340;6.812;2022-08-18T08:46:51;14.02;;;3.92;;
56331;SDS011;42237;53.340;6.812;2022-08-18T08:49:29;18.33;;;3.70;;
56331;SDS011;42237;53.340;6.812;2022-08-18T08:52:02;14.15;;;4.35;;
56331;SDS011;42237;53.340;6.812;2022-08-18T08:57:29;13.93;;;4.53;;
56331;SDS011;42237;53.340;6.812;2022-08-18T09:00:00;9.93;;;4.07;;
56331;SDS011;42237;53.340;6.812;2022-08-18T09:02:31;11.05;;;4.15;;
56331;SDS011;42237;53.340;6.812;2022-08-18T09:05:17;10.48;;;3.70;;
56331;SDS011;42237;53.340;6.812;2022-08-18T09:08:10;15.65;;;4.28;;
56331;SDS011;42237;53.340;6.812;2022-08-18T09:16:48;14.13;;;4.28;;
56331;SDS011;42237;53.340;6.812;2022-08-18T09:19:38;15.57;;;4.93;;
56331;SDS011;42237;53.340;6.812;2022-08-18T09:22:59;13.32;;;4.43;;
56331;SDS011;42237;53.340;6.812;2022-08-18T09:25:30;16.73;;;4.40;;
56331;SDS011;42237;53.340;6.812;2022-08-18T09:28:13;13.32;;;4.45;;
56331;SDS011;42237;53.340;6.812;2022-08-18T09:33:32;18.15;;;4.72;;
56331;SDS011;42237;53.340;6.812;2022-08-18T09:36:12;15.20;;;4.53;;
56331;SDS011;42237;53.340;6.812;2022-08-18T09:38:50;17.48;;;4.82;;
56331;SDS011;42237;53.340;6.812;2022-08-18T09:41:51;9.63;;;5.57;;
56331;SDS011;42237;53.340;6.812;2022-08-18T09:47:11;15.27;;;5.35;;
56331;SDS011;42237;53.340;6.812;2022-08-18T09:57:33;21.17;;;5.38;;
56331;SDS011;42237;53.340;6.812;2022-08-18T10:21:25;15.70;;;5.55;;
56331;SDS011;42237;53.340;6.812;2022-08-18T10:31:30;14.45;;;4.30;;
56331;SDS011;42237;53.340;6.812;2022-08-18T10:42:24;11.57;;;4.10;;
56331;SDS011;42237;53.340;6.812;2022-08-18T10:45:13;10.13;;;3.97;;
56331;SDS011;42237;53.340;6.812;2022-08-18T10:51:01;9.52;;;3.63;;
56331;SDS011;42237;53.340;6.812;2022-08-18T10:56:28;11.77;;;3.50;;
56331;SDS011;42237;53.340;6.812;2022-08-18T10:59:32;5.57;;;3.35;;
56331;SDS011;42237;53.340;6.812;2022-08-18T11:04:53;8.68;;;3.42;;
56331;SDS011;42237;53.340;6.812;2022-08-18T11:07:20;12.38;;;3.80;;
56331;SDS011;42237;53.340;6.812;2022-08-18T11:09:52;8.25;;;3.60;;
56331;SDS011;42237;53.340;6.812;2022-08-18T11:12:36;7.68;;;3.65;;
56331;SDS011;42237;53.340;6.812;2022-08-18T11:18:45;9.32;;;3.47;;
56331;SDS011;42237;53.340;6.812;2022-08-18T11:26:36;8.60;;;3.60;;
56331;SDS011;42237;53.340;6.812;2022-08-18T11:34:40;8.93;;;3.40;;
56331;SDS011;42237;53.340;6.812;2022-08-18T11:37:12;5.32;;;3.40;;
56331;SDS011;42237;53.340;6.812;2022-08-18T11:39:52;8.57;;;3.58;;
56331;SDS011;42237;53.340;6.812;2022-08-18T11:42:32;7.30;;;3.25;;
56331;SDS011;42237;53.340;6.812;2022-08-18T11:45:20;8.80;;;3.75;;
56331;SDS011;42237;53.340;6.812;2022-08-18T11:56:21;4.65;;;2.60;;
56331;SDS011;42237;53.340;6.812;2022-08-18T12:04:42;10.77;;;3.63;;
56331;SDS011;42237;53.340;6.812;2022-08-18T12:11:54;11.00;;;3.45;;
56331;SDS011;42237;53.340;6.812;2022-08-18T12:14:26;7.80;;;2.83;;
56331;SDS011;42237;53.340;6.812;2022-08-18T12:16:55;7.53;;;2.50;;
56331;SDS011;42237;53.340;6.812;2022-08-18T12:19:22;2.92;;;2.17;;
56331;SDS011;42237;53.340;6.812;2022-08-18T12:21:53;6.75;;;2.70;;
56331;SDS011;42237;53.340;6.812;2022-08-18T12:24:25;5.82;;;3.30;;
56331;SDS011;42237;53.340;6.812;2022-08-18T12:26:56;5.95;;;2.65;;
56331;SDS011;42237;53.340;6.812;2022-08-18T12:29:23;6.10;;;2.65;;
56331;SDS011;42237;53.340;6.812;2022-08-18T12:31:51;4.50;;;2.55;;
56331;SDS011;42237;53.340;6.812;2022-08-18T12:34:19;6.47;;;2.53;;
56331;SDS011;42237;53.340;6.812;2022-08-18T12:36:49;6.72;;;2.60;;
56331;SDS011;42237;53.340;6.812;2022-08-18T12:39:17;5.07;;;2.30;;
56331;SDS011;42237;53.340;6.812;2022-08-18T12:41:43;8.00;;;2.70;;
56331;SDS011;42237;53.340;6.812;2022-08-18T12:44:09;4.63;;;2.50;;
56331;SDS011;42237;53.340;6.812;2022-08-18T12:46:34;10.93;;;3.00;;
56331;SDS011;42237;53.340;6.812;2022-08-18T12:49:01;7.50;;;2.95;;
56331;SDS011;42237;53.340;6.812;2022-08-18T12:51:28;5.30;;;2.55;;
56331;SDS011;42237;53.340;6.812;2022-08-18T12:53:54;7.15;;;2.92;;
56331;SDS011;42237;53.340;6.812;2022-08-18T12:56:21;4.75;;;2.80;;
56331;SDS011;42237;53.340;6.812;2022-08-18T12:58:49;5.10;;;2.67;;
56331;SDS011;42237;53.340;6.812;2022-08-18T13:01:19;5.85;;;2.45;;
56331;SDS011;42237;53.340;6.812;2022-08-18T13:03:45;4.07;;;2.90;;
56331;SDS011;42237;53.340;6.812;2022-08-18T13:06:11;6.65;;;2.90;;
56331;SDS011;42237;53.340;6.812;2022-08-18T13:08:38;8.55;;;2.75;;
56331;SDS011;42237;53.340;6.812;2022-08-18T13:11:04;6.65;;;2.90;;
56331;SDS011;42237;53.340;6.812;2022-08-18T13:13:34;6.47;;;2.63;;
56331;SDS011;42237;53.340;6.812;2022-08-18T13:16:01;6.18;;;2.83;;
56331;SDS011;42237;53.340;6.812;2022-08-18T13:18:28;4.68;;;3.03;;
56331;SDS011;42237;53.340;6.812;2022-08-18T13:20:57;3.53;;;2.53;;
56331;SDS011;42237;53.340;6.812;2022-08-18T13:23:24;3.83;;;2.33;;
56331;SDS011;42237;53.340;6.812;2022-08-18T13:25:53;4.70;;;2.50;;
56331;SDS011;42237;53.340;6.812;2022-08-18T13:28:19;5.35;;;2.45;;
56331;SDS011;42237;53.340;6.812;2022-08-18T13:30:45;5.50;;;2.25;;
56331;SDS011;42237;53.340;6.812;2022-08-18T13:33:10;3.70;;;2.47;;
56331;SDS011;42237;53.340;6.812;2022-08-18T13:35:36;3.90;;;2.97;;
56331;SDS011;42237;53.340;6.812;2022-08-18T13:38:02;5.78;;;2.72;;
56331;SDS011;42237;53.340;6.812;2022-08-18T13:40:29;4.60;;;2.55;;
56331;SDS011;42237;53.340;6.812;2022-08-18T13:42:55;5.60;;;2.70;;
56331;SDS011;42237;53.340;6.812;2022-08-18T13:45:21;5.45;;;2.45;;
56331;SDS011;42237;53.340;6.812;2022-08-18T13:47:48;4.97;;;2.75;;
56331;SDS011;42237;53.340;6.812;2022-08-18T13:50:15;3.22;;;2.30;;
56331;SDS011;42237;53.340;6.812;2022-08-18T13:52:41;4.38;;;2.40;;
56331;SDS011;42237;53.340;6.812;2022-08-18T13:55:10;5.32;;;2.70;;
56331;SDS011;42237;53.340;6.812;2022-08-18T13:57:38;3.00;;;2.30;;
56331;SDS011;42237;53.340;6.812;2022-08-18T14:00:06;4.57;;;2.40;;
56331;SDS011;42237;53.340;6.812;2022-08-18T14:02:36;4.78;;;2.17;;
56331;SDS011;42237;53.340;6.812;2022-08-18T14:05:02;3.10;;;2.38;;
56331;SDS011;42237;53.340;6.812;2022-08-18T14:07:28;4.80;;;2.67;;
56331;SDS011;42237;53.340;6.812;2022-08-18T14:09:54;7.13;;;2.40;;
56331;SDS011;42237;53.340;6.812;2022-08-18T14:12:20;4.47;;;2.38;;
56331;SDS011;42237;53.340;6.812;2022-08-18T14:14:48;3.55;;;2.30;;
56331;SDS011;42237;53.340;6.812;2022-08-18T14:17:14;3.15;;;2.40;;
56331;SDS011;42237;53.340;6.812;2022-08-18T14:19:40;6.28;;;2.50;;
56331;SDS011;42237;53.340;6.812;2022-08-18T14:22:24;3.78;;;2.10;;
56331;SDS011;42237;53.340;6.812;2022-08-18T14:25:08;4.75;;;2.00;;
56331;SDS011;42237;53.340;6.812;2022-08-18T14:27:52;4.32;;;2.05;;
56331;SDS011;42237;53.340;6.812;2022-08-18T14:30:18;4.53;;;1.98;;
56331;SDS011;42237;53.340;6.812;2022-08-18T14:32:44;4.25;;;2.00;;
56331;SDS011;42237;53.340;6.812;2022-08-18T14:35:11;7.22;;;2.70;;
56331;SDS011;42237;53.340;6.812;2022-08-18T14:37:40;4.22;;;2.20;;
56331;SDS011;42237;53.340;6.812;2022-08-18T14:40:06;5.85;;;2.53;;
56331;SDS011;42237;53.340;6.812;2022-08-18T14:42:33;4.13;;;2.40;;
56331;SDS011;42237;53.340;6.812;2022-08-18T14:44:59;3.35;;;2.38;;
56331;SDS011;42237;53.340;6.812;2022-08-18T14:47:25;4.05;;;2.47;;
56331;SDS011;42237;53.340;6.812;2022-08-18T14:49:52;2.45;;;1.80;;
56331;SDS011;42237;53.340;6.812;2022-08-18T14:52:18;4.28;;;2.13;;
56331;SDS011;42237;53.340;6.812;2022-08-18T14:54:47;4.65;;;2.35;;
56331;SDS011;42237;53.340;6.812;2022-08-18T14:57:13;4.28;;;1.98;;
56331;SDS011;42237;53.340;6.812;2022-08-18T14:59:42;4.45;;;2.67;;
56331;SDS011;42237;53.340;6.812;2022-08-18T15:02:09;3.42;;;2.42;;
56331;SDS011;42237;53.340;6.812;2022-08-18T15:04:36;4.70;;;2.25;;
56331;SDS011;42237;53.340;6.812;2022-08-18T15:07:03;4.78;;;2.20;;
56331;SDS011;42237;53.340;6.812;2022-08-18T15:09:29;4.45;;;2.42;;
56331;SDS011;42237;53.340;6.812;2022-08-18T15:11:56;4.72;;;2.20;;
56331;SDS011;42237;53.340;6.812;2022-08-18T15:14:23;10.70;;;2.47;;
56331;SDS011;42237;53.340;6.812;2022-08-18T15:16:54;5.65;;;2.67;;
56331;SDS011;42237;53.340;6.812;2022-08-18T15:19:22;4.78;;;2.53;;
56331;SDS011;42237;53.340;6.812;2022-08-18T15:21:48;4.18;;;2.47;;
56331;SDS011;42237;53.340;6.812;2022-08-18T15:24:33;3.75;;;2.00;;
56331;SDS011;42237;53.340;6.812;2022-08-18T15:27:17;4.53;;;2.50;;
56331;SDS011;42237;53.340;6.812;2022-08-18T15:29:43;4.30;;;2.30;;
56331;SDS011;42237;53.340;6.812;2022-08-18T15:32:08;3.50;;;2.22;;
56331;SDS011;42237;53.340;6.812;2022-08-18T15:34:34;4.15;;;2.13;;
56331;SDS011;42237;53.340;6.812;2022-08-18T15:37:00;4.35;;;2.22;;
56331;SDS011;42237;53.340;6.812;2022-08-18T15:39:26;4.05;;;2.40;;
56331;SDS011;42237;53.340;6.812;2022-08-18T15:41:51;3.20;;;2.35;;
56331;SDS011;42237;53.340;6.812;2022-08-18T15:44:18;8.10;;;2.60;;
56331;SDS011;42237;53.340;6.812;2022-08-18T15:46:46;5.28;;;2.47;;
56331;SDS011;42237;53.340;6.812;2022-08-18T15:49:12;6.45;;;2.33;;
56331;SDS011;42237;53.340;6.812;2022-08-18T15:51:39;5.88;;;2.40;;
56331;SDS011;42237;53.340;6.812;2022-08-18T15:54:08;3.38;;;2.30;;
56331;SDS011;42237;53.340;6.812;2022-08-18T15:56:35;4.10;;;2.40;;
56331;SDS011;42237;53.340;6.812;2022-08-18T15:59:02;5.25;;;2.55;;
56331;SDS011;42237;53.340;6.812;2022-08-18T16:01:31;3.60;;;2.20;;
56331;SDS011;42237;53.340;6.812;2022-08-18T16:04:01;4.35;;;2.60;;
56331;SDS011;42237;53.340;6.812;2022-08-18T16:06:28;3.35;;;2.15;;
56331;SDS011;42237;53.340;6.812;2022-08-18T16:08:54;6.25;;;2.55;;
56331;SDS011;42237;53.340;6.812;2022-08-18T16:11:20;4.25;;;3.15;;
56331;SDS011;42237;53.340;6.812;2022-08-18T16:13:49;3.70;;;2.30;;
56331;SDS011;42237;53.340;6.812;2022-08-18T16:16:20;5.47;;;2.40;;
56331;SDS011;42237;53.340;6.812;2022-08-18T16:18:47;3.33;;;2.15;;
56331;SDS011;42237;53.340;6.812;2022-08-18T16:21:15;5.00;;;2.50;;
56331;SDS011;42237;53.340;6.812;2022-08-18T16:23:44;3.55;;;2.00;;
56331;SDS011;42237;53.340;6.812;2022-08-18T16:26:12;4.57;;;2.00;;
56331;SDS011;42237;53.340;6.812;2022-08-18T16:28:43;4.47;;;2.47;;
56331;SDS011;42237;53.340;6.812;2022-08-18T16:31:11;3.50;;;2.40;;
56331;SDS011;42237;53.340;6.812;2022-08-18T16:33:40;3.63;;;2.00;;
56331;SDS011;42237;53.340;6.812;2022-08-18T16:36:07;5.90;;;1.90;;
56331;SDS011;42237;53.340;6.812;2022-08-18T16:38:34;3.13;;;2.00;;
56331;SDS011;42237;53.340;6.812;2022-08-18T16:41:06;4.68;;;2.22;;
56331;SDS011;42237;53.340;6.812;2022-08-18T16:43:33;16.67;;;2.58;;
56331;SDS011;42237;53.340;6.812;2022-08-18T16:46:03;3.22;;;1.88;;
56331;SDS011;42237;53.340;6.812;2022-08-18T16:48:33;4.00;;;2.03;;
56331;SDS011;42237;53.340;6.812;2022-08-18T16:50:58;4.60;;;1.85;;
56331;SDS011;42237;53.340;6.812;2022-08-18T16:53:26;4.07;;;2.10;;
56331;SDS011;42237;53.340;6.812;2022-08-18T16:55:52;3.63;;;2.08;;
56331;SDS011;42237;53.340;6.812;2022-08-18T16:58:18;4.60;;;1.95;;
56331;SDS011;42237;53.340;6.812;2022-08-18T17:01:02;4.20;;;1.85;;
56331;SDS011;42237;53.340;6.812;2022-08-18T17:03:46;4.30;;;2.10;;
56331;SDS011;42237;53.340;6.812;2022-08-18T17:06:32;4.65;;;2.00;;
56331;SDS011;42237;53.340;6.812;2022-08-18T17:08:58;4.68;;;2.33;;
56331;SDS011;42237;53.340;6.812;2022-08-18T17:11:26;5.28;;;2.35;;
56331;SDS011;42237;53.340;6.812;2022-08-18T17:13:53;5.72;;;2.22;;
56331;SDS011;42237;53.340;6.812;2022-08-18T17:16:22;3.72;;;2.00;;
56331;SDS011;42237;53.340;6.812;2022-08-18T17:18:49;6.18;;;2.15;;
56331;SDS011;42237;53.340;6.812;2022-08-18T17:21:17;3.75;;;2.15;;
56331;SDS011;42237;53.340;6.812;2022-08-18T17:23:44;3.70;;;2.28;;
56331;SDS011;42237;53.340;6.812;2022-08-18T17:26:24;5.65;;;2.33;;
56331;SDS011;42237;53.340;6.812;2022-08-18T17:29:13;4.95;;;2.15;;
56331;SDS011;42237;53.340;6.812;2022-08-18T17:31:47;5.78;;;2.78;;
56331;SDS011;42237;53.340;6.812;2022-08-18T17:34:15;3.55;;;2.35;;
56331;SDS011;42237;53.340;6.812;2022-08-18T17:36:50;4.32;;;2.40;;
56331;SDS011;42237;53.340;6.812;2022-08-18T17:39:19;4.43;;;2.33;;
56331;SDS011;42237;53.340;6.812;2022-08-18T17:41:51;5.93;;;2.30;;
56331;SDS011;42237;53.340;6.812;2022-08-18T17:44:36;6.28;;;2.60;;
56331;SDS011;42237;53.340;6.812;2022-08-18T17:47:06;7.55;;;2.25;;
56331;SDS011;42237;53.340;6.812;2022-08-18T17:49:39;4.68;;;2.08;;
56331;SDS011;42237;53.340;6.812;2022-08-18T17:52:25;5.55;;;2.67;;
56331;SDS011;42237;53.340;6.812;2022-08-18T17:54:58;6.13;;;2.78;;
56331;SDS011;42237;53.340;6.812;2022-08-18T17:57:32;3.80;;;2.28;;